Weather reports worldwide

Advertisment
Usk, United Kingdom (99176): temperature & dewpoint: 06.12.2019 16:00:00 - 12.12.2019 16:00:00 (GMT)Usk, United Kingdom (99176): temperature -20cm & temperature -100cm: 06.12.2019 16:00:00 - 12.12.2019 16:00:00 (GMT)Usk, United Kingdom (99176): precipitation: 06.12.2019 16:00:00 - 12.12.2019 16:00:00 (GMT)
Date & Time tt [°C] td [°C] tt -20cm [°C] tt -100cm [°C] rr [mm]
12.12.2019 16:00:00 9,2 6,5 - - 0,0
12.12.2019 15:00:00 9,6 7,5 - - 0,2
12.12.2019 14:00:00 9,1 8,4 - - 0,2
12.12.2019 13:00:00 9,2 8,4 - - 1,2
12.12.2019 12:00:00 9,4 8,6 - - 1,2
12.12.2019 11:00:00 9,1 8,6 - - 1,2
12.12.2019 10:00:00 8,4 7,8 - - 0,8
12.12.2019 09:00:00 7,0 6,6 6,2 9,0 2,0
12.12.2019 08:00:00 6,9 6,2 - - 1,0
12.12.2019 07:00:00 5,2 4,7 - - 0,8
12.12.2019 06:00:00 4,0 3,3 - - 0,6
12.12.2019 05:00:00 3,4 3,0 - - 0,0
12.12.2019 04:00:00 1,9 1,9 - - 0,0
12.12.2019 03:00:00 -0,5 -0,5 - - 0,0
12.12.2019 02:00:00 -1,0 -1,2 - - 0,0
12.12.2019 01:00:00 -0,2 -0,4 - - 0,0
12.12.2019 00:00:00 0,6 0,6 - - 0,0
11.12.2019 23:00:00 -0,4 -0,5 - - 0,0
11.12.2019 22:00:00 -0,2 -0,3 - - 0,0
11.12.2019 21:00:00 0,2 0,0 - - 0,0
11.12.2019 20:00:00 0,4 0,2 - - 0,0
11.12.2019 19:00:00 0,9 0,7 - - 0,0
11.12.2019 18:00:00 1,6 1,1 - - 0,0
11.12.2019 17:00:00 2,4 1,5 - - 0,0
11.12.2019 16:00:00 3,3 2,4 - - 1,4
11.12.2019 15:00:00 4,9 3,5 - - 0,0
11.12.2019 14:00:00 - - - - -
11.12.2019 13:00:00 - - - - -
11.12.2019 12:00:00 5,5 4,2 - - 0,2
11.12.2019 11:00:00 5,3 3,8 - - 0,8
11.12.2019 10:00:00 5,6 4,1 - - 1,0
11.12.2019 09:00:00 5,0 4,2 7,0 9,0 1,4
11.12.2019 08:00:00 5,2 4,9 - - 0,8
11.12.2019 07:00:00 1,8 1,7 - - 0,6
11.12.2019 06:00:00 1,0 0,9 - - 0,0
11.12.2019 05:00:00 0,7 0,5 - - 0,0
11.12.2019 04:00:00 0,9 0,6 - - 0,0
11.12.2019 03:00:00 1,1 0,3 - - 0,0
11.12.2019 02:00:00 3,6 1,5 - - 0,0
11.12.2019 01:00:00 4,8 2,4 - - 0,0
11.12.2019 00:00:00 4,9 2,3 - - 0,2
10.12.2019 23:00:00 4,0 2,7 - - 0,0
10.12.2019 22:00:00 5,6 2,9 - - 0,0
10.12.2019 21:00:00 7,6 3,5 - - 0,0
10.12.2019 20:00:00 7,8 3,8 - - 0,2
10.12.2019 19:00:00 8,7 5,0 - - 0,4
10.12.2019 18:00:00 10,0 7,3 - - 2,2
10.12.2019 17:00:00 12,0 11,3 - - 2,0
10.12.2019 16:00:00 11,7 10,5 - - 0,4
10.12.2019 15:00:00 12,0 10,5 - - 0,0
10.12.2019 14:00:00 11,5 10,4 - - 1,4
10.12.2019 13:00:00 11,1 10,3 - - 1,0
10.12.2019 12:00:00 10,8 9,4 - - 0,2
10.12.2019 11:00:00 10,0 9,3 - - 4,0
10.12.2019 10:00:00 9,4 8,7 - - 2,4
10.12.2019 09:00:00 8,9 8,0 6,7 9,0 1,0
10.12.2019 08:00:00 8,5 7,0 - - 0,4
10.12.2019 07:00:00 7,6 6,4 - - 0,0
10.12.2019 06:00:00 7,2 4,9 - - 0,0
10.12.2019 05:00:00 5,4 4,8 - - 0,0
10.12.2019 04:00:00 3,7 2,9 - - 0,0
10.12.2019 03:00:00 3,9 3,2 - - 0,2
10.12.2019 02:00:00 3,5 2,9 - - 0,0
10.12.2019 01:00:00 0,3 0,1 - - 0,0
10.12.2019 00:00:00 -0,7 -1,1 - - 0,0
09.12.2019 23:00:00 -0,2 -0,7 - - 0,0
09.12.2019 22:00:00 0,8 0,1 - - 0,0
09.12.2019 21:00:00 1,6 0,7 - - 0,0
09.12.2019 20:00:00 1,6 0,4 - - 0,0
09.12.2019 19:00:00 3,1 1,0 - - 0,0
09.12.2019 18:00:00 4,9 1,0 - - 0,0
09.12.2019 17:00:00 6,7 1,5 - - 0,0
09.12.2019 16:00:00 7,9 1,9 - - 0,0
09.12.2019 15:00:00 8,9 1,6 - - 0,0
09.12.2019 14:00:00 9,7 1,6 - - 0,0
09.12.2019 13:00:00 9,4 2,0 - - 0,0
09.12.2019 12:00:00 9,5 2,4 - - 0,0
09.12.2019 11:00:00 9,3 2,2 - - 0,0
09.12.2019 10:00:00 8,0 3,9 - - 0,2
09.12.2019 09:00:00 8,2 3,7 7,7 9,0 0,0
09.12.2019 08:00:00 8,4 3,6 - - 0,0
09.12.2019 07:00:00 8,7 3,5 - - 0,0
09.12.2019 06:00:00 9,1 3,9 - - 0,0
09.12.2019 05:00:00 9,2 3,5 - - 0,0
09.12.2019 04:00:00 9,6 4,8 - - 0,0
09.12.2019 03:00:00 9,8 5,2 - - 0,4
09.12.2019 02:00:00 7,7 5,3 - - 1,0
09.12.2019 01:00:00 7,9 4,7 - - 0,2
09.12.2019 00:00:00 8,1 3,8 - - 0,0
08.12.2019 23:00:00 5,6 5,2 - - 0,2
08.12.2019 22:00:00 5,7 4,8 - - 3,8
08.12.2019 21:00:00 7,3 4,7 - - 0,8
08.12.2019 20:00:00 7,2 4,4 - - 0,2
08.12.2019 19:00:00 7,6 3,6 - - 0,0
08.12.2019 18:00:00 7,3 3,5 - - 0,4
08.12.2019 17:00:00 7,6 3,8 - - 0,0
08.12.2019 16:00:00 7,4 2,0 - - 0,0
08.12.2019 15:00:00 8,6 3,2 - - 0,0
08.12.2019 14:00:00 8,1 4,3 - - 0,2
08.12.2019 13:00:00 9,9 2,7 - - 0,0
08.12.2019 12:00:00 10,1 4,2 - - 0,0
08.12.2019 11:00:00 10,3 3,1 - - 0,0
08.12.2019 10:00:00 10,0 3,8 - - 0,0
08.12.2019 09:00:00 9,3 4,0 7,9 9,0 0,0
08.12.2019 08:00:00 9,6 4,2 - - 0,0
08.12.2019 07:00:00 9,6 4,3 - - 0,0
08.12.2019 06:00:00 10,7 5,5 - - 0,0
08.12.2019 05:00:00 10,7 6,4 - - 0,0
08.12.2019 04:00:00 11,7 7,1 - - 0,0
08.12.2019 03:00:00 12,5 9,4 - - 0,2
08.12.2019 02:00:00 11,5 11,2 - - 0,6
08.12.2019 01:00:00 9,9 9,4 - - 3,4
08.12.2019 00:00:00 9,4 8,7 - - 1,8
07.12.2019 23:00:00 9,7 8,2 - - 0,0
07.12.2019 22:00:00 9,8 7,8 - - 0,0
07.12.2019 21:00:00 9,6 7,7 - - 0,0
07.12.2019 20:00:00 9,7 7,9 - - 0,0
07.12.2019 19:00:00 9,9 8,0 - - 0,0
07.12.2019 18:00:00 9,7 8,4 - - 0,0
07.12.2019 17:00:00 10,0 8,2 - - 0,0
07.12.2019 16:00:00 10,2 7,6 - - 0,0
07.12.2019 15:00:00 10,6 6,7 - - 0,0
07.12.2019 14:00:00 10,7 6,9 - - 0,0
07.12.2019 13:00:00 10,8 6,8 - - 0,0
07.12.2019 12:00:00 10,5 6,9 - - 0,0
07.12.2019 11:00:00 10,0 7,7 - - 0,0
07.12.2019 10:00:00 9,7 7,1 - - 0,0
07.12.2019 09:00:00 8,4 6,4 7,4 9,0 0,0
07.12.2019 08:00:00 8,3 6,1 - - 0,0
07.12.2019 07:00:00 8,2 6,0 - - 0,0
07.12.2019 06:00:00 8,6 5,3 - - 0,0
07.12.2019 05:00:00 8,8 5,4 - - 0,0
07.12.2019 04:00:00 9,1 5,9 - - 0,0
07.12.2019 03:00:00 9,2 5,8 - - 0,0
07.12.2019 02:00:00 9,3 5,8 - - 0,0
07.12.2019 01:00:00 9,4 6,0 - - 0,0
07.12.2019 00:00:00 9,0 6,2 - - 0,0
06.12.2019 23:00:00 8,7 5,9 - - 0,0
06.12.2019 22:00:00 9,2 6,0 - - 0,0
06.12.2019 21:00:00 9,0 5,8 - - 0,0
06.12.2019 20:00:00 9,3 5,3 - - 0,0
06.12.2019 19:00:00 10,1 5,0 - - 0,0
06.12.2019 18:00:00 10,4 6,3 - - 0,0
06.12.2019 17:00:00 10,3 6,0 - - 0,0
06.12.2019 16:00:00 10,5 6,8 - - 0,0

tt = temperature
td = dewpoint
tt -20cm = temperature -20cm
tt -100cm = temperature -100cm
rr = precipitation

Next stations